HKE1 VHHH-VHH1
Flight info
| Callsign | HKE1 |
|---|---|
| Flight time | N/A |
| Altitude | 38000 |
| Route | PECAN3X/07R PECAN V12 EPDOS DCT CARSO V551 BETTY |
| Aircraft | A320/M-SDE3FGHIRWY/LB1 |
Departure
| Time | 2026-05-05 07:07 |
|---|---|
| Airport | Hong Kong International Airport (VHHH) |
Arrival
| Time | N/A |
|---|---|
| Airport | VHH1 |
| Time | Latitude | Longitude | Altitude | Speed | Heading |
|---|---|---|---|---|---|
| 2026-05-05 06:53 | 22.30578 | 113.91365 | 37 ft | 0 kts | 71° |
| 2026-05-05 06:56 | 22.30576 | 113.91360 | 37 ft | 4 kts | 71° |
| 2026-05-05 06:57 | 22.30568 | 113.91332 | 37 ft | 4 kts | 71° |
| 2026-05-05 06:57 | 22.30559 | 113.91304 | 36 ft | 4 kts | 71° |
| 2026-05-05 06:57 | 22.30553 | 113.91278 | 34 ft | 4 kts | 100° |
| 2026-05-05 06:57 | 22.30565 | 113.91256 | 34 ft | 4 kts | 152° |
| 2026-05-05 06:58 | 22.30583 | 113.91248 | 34 ft | 2 kts | 160° |
| 2026-05-05 06:58 | 22.30585 | 113.91248 | 34 ft | 1 kts | 160° |
| 2026-05-05 07:01 | 22.30584 | 113.91248 | 37 ft | 1 kts | 160° |
| 2026-05-05 07:01 | 22.30560 | 113.91257 | 37 ft | 6 kts | 160° |
| 2026-05-05 07:02 | 22.30505 | 113.91278 | 37 ft | 11 kts | 160° |
| 2026-05-05 07:02 | 22.30425 | 113.91308 | 37 ft | 9 kts | 161° |
| 2026-05-05 07:02 | 22.30374 | 113.91263 | 35 ft | 12 kts | 247° |
| 2026-05-05 07:02 | 22.30343 | 113.91164 | 35 ft | 16 kts | 252° |
| 2026-05-05 07:03 | 22.30320 | 113.91099 | 37 ft | 18 kts | 248° |
| 2026-05-05 07:03 | 22.30298 | 113.91028 | 37 ft | 20 kts | 251° |
| 2026-05-05 07:03 | 22.30246 | 113.90865 | 35 ft | 25 kts | 251° |
| 2026-05-05 07:03 | 22.30183 | 113.90669 | 36 ft | 30 kts | 250° |
| 2026-05-05 07:04 | 22.30118 | 113.90475 | 37 ft | 28 kts | 252° |
| 2026-05-05 07:04 | 22.30052 | 113.90271 | 37 ft | 30 kts | 251° |
| 2026-05-05 07:04 | 22.29984 | 113.90054 | 37 ft | 30 kts | 252° |
| 2026-05-05 07:04 | 22.29915 | 113.89846 | 37 ft | 25 kts | 250° |
| 2026-05-05 07:05 | 22.29873 | 113.89742 | 37 ft | 9 kts | 221° |
| 2026-05-05 07:05 | 22.29830 | 113.89735 | 37 ft | 8 kts | 165° |
| 2026-05-05 07:05 | 22.29762 | 113.89757 | 37 ft | 13 kts | 163° |
| 2026-05-05 07:05 | 22.29677 | 113.89792 | 37 ft | 10 kts | 152° |
| 2026-05-05 07:06 | 22.29647 | 113.89851 | 37 ft | 10 kts | 98° |
| 2026-05-05 07:06 | 22.29667 | 113.89939 | 36 ft | 15 kts | 69° |
| 2026-05-05 07:06 | 22.29707 | 113.90068 | 36 ft | 27 kts | 71° |
| 2026-05-05 07:06 | 22.29872 | 113.90574 | 35 ft | 112 kts | 71° |
| 2026-05-05 07:07 | 22.30201 | 113.91587 | 112 ft | 167 kts | 71° |
| 2026-05-05 07:07 | 22.30578 | 113.92818 | 909 ft | 175 kts | 73° |
| 2026-05-05 07:07 | 22.30952 | 113.94097 | 1774 ft | 184 kts | 75° |
| 2026-05-05 07:07 | 22.31364 | 113.95455 | 2492 ft | 198 kts | 72° |
| 2026-05-05 07:08 | 22.31865 | 113.96903 | 3169 ft | 219 kts | 71° |